Time;durP1;ratioP1;P1;durP2;ratioP2;P2;SDS_P1;SDS_P2;PMS_P1;PMS_P2;Temp;Humidity;BMP_temperature;BMP_pressure;BME280_temperature;BME280_humidity;BME280_pressure;Samples;Min_cycle;Max_cycle;Signal;HPM_P1;HPM_P2
2023/02/22 00:02:25;;;;;;;;;45.50;36.75;;;;;14.67;52.51;100624.59;5093720;27;45608;-75
2023/02/22 00:08:14;;;;;;;;;42.00;36.00;;;;;14.64;52.62;100616.94;5093072;27;46190;-78
2023/02/22 00:10:39;;;;;;;;;38.75;31.50;;;;;14.66;52.72;100615.00;5093151;27;45913;-76
2023/02/22 00:13:08;;;;;;;;;39.00;35.25;;;;;14.66;52.59;100611.53;5093491;27;45553;-74
2023/02/22 00:15:35;;;;;;;;;34.75;33.00;;;;;14.65;52.60;100615.97;5093216;27;46402;-73
2023/02/22 00:18:02;;;;;;;;;38.25;34.75;;;;;14.66;52.60;100607.09;5092769;27;46487;-75
2023/02/22 00:20:27;;;;;;;;;44.00;36.75;;;;;14.66;52.95;100600.97;5092826;27;45977;-76
2023/02/22 00:22:53;;;;;;;;;40.25;35.50;;;;;14.66;52.72;100593.91;5092971;27;46092;-75
2023/02/22 00:25:21;;;;;;;;;40.00;36.00;;;;;14.67;52.95;100594.75;5093135;27;46148;-75
2023/02/22 00:27:51;;;;;;;;;39.25;35.00;;;;;14.60;52.69;100589.16;5093139;27;46181;-74
2023/02/22 00:30:20;;;;;;;;;42.75;36.75;;;;;14.66;53.00;100595.72;5092881;27;45875;-75
2023/02/22 00:32:46;;;;;;;;;38.50;33.25;;;;;14.63;52.85;100593.31;5093115;27;45603;-75
2023/02/22 00:38:33;;;;;;;;;37.00;34.25;;;;;14.61;52.91;100582.09;5092850;27;46316;-75
2023/02/22 00:40:58;;;;;;;;;42.00;36.75;;;;;14.62;53.05;100575.84;5093714;27;45829;-73
2023/02/22 00:43:23;;;;;;;;;42.75;36.25;;;;;14.62;52.94;100568.78;5093193;27;45882;-76
2023/02/22 00:45:49;;;;;;;;;35.75;34.00;;;;;14.61;53.01;100568.91;5092965;27;45690;-76
2023/02/22 00:48:14;;;;;;;;;40.00;36.00;;;;;14.66;53.11;100583.34;5092799;27;46191;-75
2023/02/22 00:50:40;;;;;;;;;40.00;31.25;;;;;14.64;53.27;100572.09;5092642;27;45628;-75
2023/02/22 00:53:06;;;;;;;;;44.50;37.00;;;;;14.62;53.15;100568.78;5092361;27;45700;-75
2023/02/22 00:55:34;;;;;;;;;40.25;36.00;;;;;14.63;53.18;100565.16;5092899;27;45686;-75
2023/02/22 00:58:00;;;;;;;;;34.50;33.25;;;;;14.62;53.39;100574.06;5092788;27;46308;-75
2023/02/22 01:00:31;;;;;;;;;40.00;36.00;;;;;14.67;53.41;100573.66;5092801;27;45580;-74
2023/02/22 01:02:57;;;;;;;;;43.25;37.00;;;;;14.64;53.31;100569.47;5093235;27;45544;-75
2023/02/22 01:08:46;;;;;;;;;38.25;35.00;;;;;14.64;53.33;100560.72;5095640;27;46371;-75
2023/02/22 01:11:14;;;;;;;;;45.50;36.50;;;;;14.66;53.33;100561.44;5096235;27;45645;-74
2023/02/22 01:13:39;;;;;;;;;39.75;35.75;;;;;14.65;53.53;100557.13;5095621;27;45715;-74
2023/02/22 01:16:07;;;;;;;;;37.25;34.00;;;;;14.64;53.28;100560.72;5096038;27;45538;-75
2023/02/22 01:18:34;;;;;;;;;41.50;36.50;;;;;14.58;53.18;100554.19;5095798;27;46045;-76
2023/02/22 01:21:00;;;;;;;;;47.75;37.25;;;;;14.63;53.33;100556.41;5095903;27;45910;-74
2023/02/22 01:23:26;;;;;;;;;47.00;38.50;;;;;14.63;53.40;100559.03;5095866;27;45827;-74
2023/02/22 01:25:51;;;;;;;;;37.00;35.75;;;;;14.61;53.46;100553.09;5095803;27;46713;-74
2023/02/22 01:28:16;;;;;;;;;44.50;37.00;;;;;14.54;53.73;100546.69;5094243;27;46930;-75
2023/02/22 01:30:42;;;;;;;;;41.50;36.00;;;;;14.55;53.67;100546.56;5095442;27;45722;-74
2023/02/22 01:33:07;;;;;;;;;43.50;37.75;;;;;14.54;53.63;100541.41;5095831;27;45585;-75
2023/02/22 01:38:54;;;;;;;;;41.50;35.50;;;;;14.53;53.87;100542.38;5095163;27;45736;-74
2023/02/22 01:41:19;;;;;;;;;45.25;38.50;;;;;14.55;53.83;100548.34;5095593;27;45810;-75
2023/02/22 01:43:45;;;;;;;;;43.00;36.50;;;;;14.51;53.55;100545.16;5095144;27;45831;-76
2023/02/22 01:46:21;;;;;;;;;46.75;38.75;;;;;14.53;53.72;100537.09;5095070;27;47364;-76
2023/02/22 01:48:52;;;;;;;;;48.00;38.50;;;;;14.47;53.69;100535.00;5094903;27;46994;-75
2023/02/22 01:51:22;;;;;;;;;46.00;39.00;;;;;14.51;53.99;100555.72;5095305;27;45746;-75
2023/02/22 01:54:05;;;;;;;;;45.75;40.00;;;;;14.51;53.80;100552.25;5094011;27;45810;-75
2023/02/22 01:56:34;;;;;;;;;46.75;38.00;;;;;14.42;53.76;100545.97;5095363;27;46576;-74
2023/02/22 01:59:05;;;;;;;;;48.50;39.75;;;;;14.47;54.11;100556.09;5094885;27;46298;-75
2023/02/22 02:01:32;;;;;;;;;49.00;39.25;;;;;14.41;53.90;100549.59;5095497;27;46190;-76
2023/02/22 02:04:01;;;;;;;;;49.00;40.25;;;;;14.43;54.07;100549.44;5093921;27;45633;-77
2023/02/22 02:06:32;;;;;;;;;52.00;43.00;;;;;14.42;53.87;100548.59;5095313;27;45803;-76
2023/02/22 02:09:21;;;;;;;;;49.75;40.25;;;;;14.40;54.23;100545.28;5094753;27;47014;-76
2023/02/22 02:11:48;;;;;;;;;51.00;42.50;;;;;14.38;54.07;100535.81;5095321;27;45970;-75
2023/02/22 02:14:14;;;;;;;;;49.50;40.50;;;;;14.31;53.94;100524.94;5095023;27;45677;-75
2023/02/22 02:16:46;;;;;;;;;52.25;43.25;;;;;14.26;54.35;100519.25;5093906;27;46232;-75
2023/02/22 02:19:44;;;;;;;;;30.75;29.25;;;;;14.29;54.13;100530.38;5094769;27;46907;-75
2023/02/22 02:22:37;;;;;;;;;49.25;39.75;;;;;14.26;53.89;100540.34;5095023;27;45584;-76
2023/02/22 02:25:50;;;;;;;;;52.25;42.75;;;;;14.18;54.00;100527.84;5095337;27;45770;-75
2023/02/22 02:28:24;;;;;;;;;50.50;41.00;;;;;14.20;54.10;100533.81;5071728;28;46673;-76
2023/02/22 02:31:42;;;;;;;;;50.75;40.50;;;;;14.18;54.11;100524.38;5072472;28;46247;-76
2023/02/22 02:37:56;;;;;;;;;53.50;40.75;;;;;14.13;54.50;100518.69;4991469;28;45702;-75
2023/02/22 02:40:58;;;;;;;;;52.25;41.25;;;;;14.10;54.71;100518.94;4991746;28;46327;-76
2023/02/22 02:44:00;;;;;;;;;42.00;37.00;;;;;14.07;54.77;100512.16;4913500;28;47598;-75
2023/02/22 02:46:34;;;;;;;;;47.00;40.00;;;;;13.99;54.52;100503.22;4914004;28;45941;-75
2023/02/22 02:49:14;;;;;;;;;44.75;38.00;;;;;14.01;54.93;100509.19;4914393;28;45871;-76
2023/02/22 02:52:13;;;;;;;;;41.50;37.00;;;;;13.99;54.76;100511.13;4910114;28;46472;-76
2023/02/22 02:54:40;;;;;;;;;47.50;39.25;;;;;13.94;54.97;100503.63;4894566;29;46385;-76
2023/02/22 02:57:05;;;;;;;;;49.75;40.00;;;;;13.95;55.22;100501.81;4894676;29;45714;-77
2023/02/22 02:59:36;;;;;;;;;40.25;34.00;;;;;13.90;55.02;100499.59;4895050;29;45811;-76
2023/02/22 03:02:13;;;;;;;;;51.75;40.25;;;;;13.91;55.13;100503.06;4895356;29;45530;-75
2023/02/22 03:08:23;;;;;;;;;43.00;38.25;;;;;13.86;55.22;100506.09;4930462;28;45872;-77
2023/02/22 03:10:56;;;;;;;;;52.25;42.50;;;;;13.84;55.23;100508.84;4952647;28;45875;-76
2023/02/22 03:13:59;;;;;;;;;48.75;39.50;;;;;13.79;54.99;100504.94;4951591;28;46847;-76
2023/02/22 03:16:40;;;;;;;;;51.00;40.50;;;;;13.79;55.20;100505.78;4951827;28;46159;-76
2023/02/22 03:19:41;;;;;;;;;50.75;39.50;;;;;13.77;55.37;100505.06;4976893;28;45616;-76
2023/02/22 03:22:26;;;;;;;;;44.25;40.00;;;;;13.76;55.26;100510.50;5050994;28;45757;-76
2023/02/22 03:24:57;;;;;;;;;50.25;40.00;;;;;13.73;55.13;100498.41;5050426;28;47672;-73
2023/02/22 03:27:33;;;;;;;;;46.00;38.00;;;;;13.72;55.31;100490.63;5049499;28;46394;-74
2023/02/22 03:30:06;;;;;;;;;46.50;40.25;;;;;13.70;55.58;100487.31;5050677;28;45650;-76
2023/02/22 03:32:41;;;;;;;;;45.00;38.00;;;;;13.68;55.78;100489.25;5051303;28;45931;-76
2023/02/22 03:38:32;;;;;;;;;45.50;39.75;;;;;13.62;55.49;100479.22;5050360;28;45750;-75
2023/02/22 03:41:00;;;;;;;;;44.25;38.00;;;;;13.59;55.17;100482.16;5051694;28;45795;-75
2023/02/22 03:43:39;;;;;;;;;41.75;37.25;;;;;13.60;55.88;100479.38;5051080;28;45762;-75
2023/02/22 03:46:07;;;;;;;;;48.00;38.75;;;;;13.59;55.79;100482.16;5050316;28;47010;-75
2023/02/22 03:48:42;;;;;;;;;48.25;40.00;;;;;13.57;55.53;100479.63;5050016;28;46256;-75
2023/02/22 03:54:31;;;;;;;;;53.00;43.50;;;;;13.51;55.97;100484.59;5068747;28;45953;-75
2023/02/22 03:57:03;;;;;;;;;46.25;38.75;;;;;13.53;55.87;100480.88;5067374;28;46560;-75
2023/02/22 03:59:29;;;;;;;;;45.50;37.00;;;;;13.49;55.91;100470.75;5052870;28;46210;-75
2023/02/22 04:01:56;;;;;;;;;41.25;34.50;;;;;13.51;55.75;100477.53;5052583;28;45641;-75
2023/02/22 04:04:23;;;;;;;;;43.25;37.00;;;;;13.50;55.91;100464.47;5047473;28;45769;-74
2023/02/22 04:10:11;;;;;;;;;53.00;42.75;;;;;13.40;55.95;100452.13;5046405;28;45806;-74
2023/02/22 04:12:37;;;;;;;;;49.75;39.00;;;;;13.43;55.78;100456.31;5046874;28;45741;-75
2023/02/22 04:15:05;;;;;;;;;50.50;38.25;;;;;13.37;56.00;100451.56;5047092;28;45682;-75
2023/02/22 04:17:30;;;;;;;;;53.75;40.25;;;;;13.39;56.13;100458.34;5046218;28;45625;-74
2023/02/22 04:19:55;;;;;;;;;49.25;40.75;;;;;13.40;56.09;100461.81;5046640;28;47146;-76
2023/02/22 04:25:43;;;;;;;;;49.50;40.75;;;;;13.35;56.37;100462.22;5047294;28;45883;-76
2023/02/22 04:28:08;;;;;;;;;51.75;41.75;;;;;13.34;56.21;100459.69;5045116;28;46219;-75
2023/02/22 04:30:35;;;;;;;;;52.25;41.25;;;;;13.27;56.64;100458.56;5046859;28;46139;-75
2023/02/22 04:33:00;;;;;;;;;54.00;43.00;;;;;13.29;56.38;100467.97;5047233;28;46141;-75
2023/02/22 04:35:26;;;;;;;;;50.75;41.75;;;;;13.27;56.19;100466.47;5046981;28;45625;-75
2023/02/22 04:41:13;;;;;;;;;48.25;38.25;;;;;13.24;56.63;100475.44;5050166;28;45825;-75
2023/02/22 04:43:38;;;;;;;;;45.75;38.00;;;;;13.23;56.58;100476.38;5050566;28;45873;-76
2023/02/22 04:46:04;;;;;;;;;48.50;41.00;;;;;13.26;56.30;100484.03;5050247;28;45774;-75
2023/02/22 04:48:30;;;;;;;;;52.25;40.50;;;;;13.28;56.73;100483.91;5049825;28;46564;-75
2023/02/22 04:50:55;;;;;;;;;49.75;41.25;;;;;13.24;56.73;100474.59;5049687;28;46329;-75
2023/02/22 04:53:21;;;;;;;;;48.25;40.00;;;;;13.24;56.60;100470.16;5054118;27;45821;-75
2023/02/22 04:55:46;;;;;;;;;53.50;43.75;;;;;13.18;56.46;100468.06;5091162;27;46056;-75
2023/02/22 04:58:12;;;;;;;;;53.00;42.25;;;;;13.21;56.80;100475.72;5090467;27;45813;-77
2023/02/22 05:00:37;;;;;;;;;49.75;40.50;;;;;13.24;56.48;100483.31;5090756;27;45678;-76
2023/02/22 05:03:02;;;;;;;;;53.00;40.50;;;;;13.24;56.54;100485.13;5090627;27;45828;-75
2023/02/22 05:05:28;;;;;;;;;46.50;38.50;;;;;13.21;56.65;100482.75;5089054;27;46108;-75
2023/02/22 05:11:15;;;;;;;;;46.25;40.75;;;;;13.19;57.18;100490.78;5090859;27;45916;-75
2023/02/22 05:13:41;;;;;;;;;47.25;40.00;;;;;13.21;57.08;100488.03;5090102;27;45697;-75
2023/02/22 05:16:06;;;;;;;;;46.25;40.50;;;;;13.19;56.89;100489.94;5090191;27;45859;-75
2023/02/22 05:18:31;;;;;;;;;43.25;39.00;;;;;13.20;57.10;100491.59;5090065;27;46491;-75
2023/02/22 05:20:57;;;;;;;;;48.75;40.50;;;;;13.20;56.87;100496.88;5090327;27;46098;-74
2023/02/22 05:26:45;;;;;;;;;49.25;41.00;;;;;13.15;57.30;100484.09;5090132;27;45957;-75
2023/02/22 05:29:10;;;;;;;;;51.50;41.00;;;;;13.18;57.29;100480.38;5089681;27;47607;-75
2023/02/22 05:31:36;;;;;;;;;51.75;41.00;;;;;13.17;56.95;100470.84;5090064;27;45985;-75
2023/02/22 05:34:01;;;;;;;;;43.25;39.00;;;;;13.11;56.91;100469.53;5090046;27;45947;-76
2023/02/22 05:36:26;;;;;;;;;54.25;41.25;;;;;13.16;57.35;100480.53;5090730;27;45760;-76
2023/02/22 05:38:52;;;;;;;;;43.25;38.25;;;;;13.11;57.29;100460.78;5089352;27;46433;-77
2023/02/22 05:41:18;;;;;;;;;51.75;40.75;;;;;13.06;57.17;100450.66;5089718;27;45910;-74
2023/02/22 05:43:43;;;;;;;;;48.00;39.75;;;;;13.13;57.53;100466.78;5089493;27;45987;-75
2023/02/22 05:46:09;;;;;;;;;45.25;40.00;;;;;13.12;57.19;100470.38;5089753;27;45818;-76
2023/02/22 05:48:34;;;;;;;;;47.00;38.50;;;;;13.11;57.13;100485.31;5095564;27;46483;-75
2023/02/22 05:50:59;;;;;;;;;51.75;41.00;;;;;13.10;57.68;100477.53;5095003;27;45627;-75
2023/02/22 05:53:25;;;;;;;;;53.25;40.50;;;;;13.06;57.70;100469.06;5094825;27;45773;-75
2023/02/22 05:55:51;;;;;;;;;44.50;38.50;;;;;13.06;57.71;100466.44;5095895;27;45696;-75
2023/02/22 05:58:16;;;;;;;;;50.75;42.50;;;;;13.04;58.01;100466.56;5094670;27;46533;-76
2023/02/22 06:00:42;;;;;;;;;45.00;38.75;;;;;13.00;57.66;100467.78;5094447;27;47494;-79
2023/02/22 06:03:09;;;;;;;;;44.75;38.00;;;;;13.00;57.65;100472.22;5095187;27;45659;-77
2023/02/22 06:05:35;;;;;;;;;47.00;39.75;;;;;12.96;57.66;100476.88;5093999;27;45844;-79
2023/02/22 06:08:02;;;;;;;;;53.25;43.25;;;;;12.98;57.95;100484.66;5095102;27;45619;-78
2023/02/22 06:10:28;;;;;;;;;43.25;38.25;;;;;12.92;57.92;100477.25;5095486;27;46068;-78
2023/02/22 06:12:54;;;;;;;;;51.00;40.50;;;;;12.92;58.41;100493.88;5095317;27;45542;-78
2023/02/22 06:15:22;;;;;;;;;44.75;37.75;;;;;12.91;57.97;100491.34;5095313;27;45694;-77
2023/02/22 06:17:50;;;;;;;;;45.75;38.00;;;;;12.81;58.48;100465.00;5095239;27;46425;-80
2023/02/22 06:20:18;;;;;;;;;42.50;38.00;;;;;12.85;59.02;100471.66;5094666;27;47708;-75
2023/02/22 06:22:46;;;;;;;;;48.75;39.00;;;;;12.84;58.98;100475.28;5094867;27;45570;-74
2023/02/22 06:25:14;;;;;;;;;42.50;35.75;;;;;12.83;58.86;100470.13;5095984;27;45889;-79
2023/02/22 06:27:39;;;;;;;;;49.75;39.25;;;;;12.74;58.92;100469.09;5095655;27;46435;-80
2023/02/22 06:30:06;;;;;;;;;47.50;40.75;;;;;12.77;58.97;100487.25;5093636;27;46389;-79
2023/02/22 06:32:31;;;;;;;;;49.25;41.00;;;;;12.77;59.61;100495.13;5094496;27;45585;-78
2023/02/22 06:34:56;;;;;;;;;45.50;38.00;;;;;12.54;59.43;100451.50;5093498;27;45691;-79
2023/02/22 06:37:22;;;;;;;;;44.50;38.25;;;;;12.73;59.62;100485.84;5094431;27;46390;-74
2023/02/22 06:39:47;;;;;;;;;44.50;38.25;;;;;12.72;59.61;100481.53;5093816;27;47160;-74
2023/02/22 06:42:12;;;;;;;;;29.50;26.50;;;;;12.70;59.53;100486.06;5094500;27;45671;-77
2023/02/22 06:44:38;;;;;;;;;54.75;42.00;;;;;12.68;59.64;100495.91;5094847;27;45660;-76
2023/02/22 06:47:03;;;;;;;;;51.00;40.75;;;;;12.66;59.85;100502.22;5094674;27;47292;-75
2023/02/22 06:49:28;;;;;;;;;52.50;41.50;;;;;12.52;59.90;100488.41;5095553;27;46576;-76
2023/02/22 06:51:54;;;;;;;;;50.50;38.50;;;;;12.62;59.86;100506.91;5096666;27;45755;-77
2023/02/22 06:58:20;;;;;;;;;59.25;46.50;;;;;12.61;60.47;100508.69;5088760;27;46082;-77
2023/02/22 07:00:45;;;;;;;;;55.00;45.00;;;;;12.58;60.53;100508.94;5094376;27;45680;-75
2023/02/22 07:03:12;;;;;;;;;49.75;41.00;;;;;12.57;60.21;100511.72;5092298;27;45661;-75
2023/02/22 07:05:38;;;;;;;;;58.75;45.75;;;;;12.55;60.54;100505.72;5092735;27;45774;-74
2023/02/22 07:08:05;;;;;;;;;60.25;48.00;;;;;12.55;60.58;100508.34;5093899;27;45671;-75
2023/02/22 07:10:32;;;;;;;;;49.50;41.75;;;;;12.54;60.86;100511.94;5093807;27;45645;-76
2023/02/22 07:12:58;;;;;;;;;54.50;43.50;;;;;12.40;60.64;100485.94;5094202;27;45882;-74
2023/02/22 07:15:25;;;;;;;;;53.50;42.50;;;;;12.44;61.44;100498.72;5094172;27;45432;-75
2023/02/22 07:18:02;;;;;;;;;56.25;42.25;;;;;12.51;61.01;100518.28;5093991;27;45729;-73
2023/02/22 07:20:30;;;;;;;;;59.25;47.00;;;;;12.51;61.49;100520.91;5094146;27;45740;-73
2023/02/22 07:29:27;;;;;;;;;54.25;44.00;;;;;12.42;62.20;100549.69;5070510;28;45771;-74
2023/02/22 07:31:52;;;;;;;;;54.25;46.00;;;;;12.36;62.35;100543.13;5070558;28;47340;-73
2023/02/22 07:34:18;;;;;;;;;56.00;45.00;;;;;12.30;62.30;100532.31;5053684;28;46273;-74
2023/02/22 07:36:43;;;;;;;;;58.25;43.50;;;;;12.29;62.49;100534.09;5070719;28;45728;-76
2023/02/22 07:39:09;;;;;;;;;49.00;39.25;;;;;12.24;62.50;100543.28;5070375;28;46226;-75
2023/02/22 07:41:35;;;;;;;;;45.50;39.00;;;;;12.18;62.17;100553.34;5070247;28;45855;-75
2023/02/22 07:44:11;;;;;;;;;59.75;48.75;;;;;12.21;62.52;100562.75;5070426;27;45781;-74
2023/02/22 07:46:37;;;;;;;;;56.50;46.50;;;;;12.08;62.51;100543.66;5070530;28;45932;-73
2023/02/22 07:49:04;;;;;;;;;54.50;44.75;;;;;12.11;62.60;100556.53;5070365;28;47333;-74
2023/02/22 07:51:29;;;;;;;;;59.75;46.00;;;;;12.05;63.28;100547.34;5070239;28;46739;-74
2023/02/22 07:53:54;;;;;;;;;58.25;46.50;;;;;11.99;63.07;100545.22;5053261;28;45815;-75
2023/02/22 07:56:20;;;;;;;;;56.50;45.75;;;;;12.02;62.96;100555.50;5070693;28;45607;-74
2023/02/22 07:58:45;;;;;;;;;55.50;45.75;;;;;11.97;63.18;100547.13;5087012;27;46704;-75
2023/02/22 08:01:10;;;;;;;;;58.50;48.75;;;;;11.86;63.61;100534.00;5070530;28;46139;-74
2023/02/22 08:03:36;;;;;;;;;59.25;48.50;;;;;11.71;63.66;100524.66;5089201;27;45549;-75
2023/02/22 08:06:05;;;;;;;;;62.50;49.25;;;;;11.94;63.29;100562.28;5093619;27;45793;-74
2023/02/22 08:08:31;;;;;;;;;60.00;48.75;;;;;11.93;63.97;100558.81;5093647;27;46465;-74
2023/02/22 08:14:18;;;;;;;;;62.00;49.75;;;;;11.85;64.16;100555.94;5095512;27;45508;-75
2023/02/22 08:16:44;;;;;;;;;63.50;49.75;;;;;11.73;64.01;100546.38;5097457;27;45849;-75
2023/02/22 08:19:09;;;;;;;;;55.50;44.50;;;;;11.78;64.48;100563.47;5096700;27;47633;-74
2023/02/22 08:21:34;;;;;;;;;64.25;51.50;;;;;11.76;64.72;100564.53;5095999;27;47125;-75
2023/02/22 08:23:59;;;;;;;;;60.50;48.00;;;;;11.75;64.65;100557.63;5096736;27;45750;-75
2023/02/22 08:26:25;;;;;;;;;62.00;50.25;;;;;11.72;64.75;100557.81;5096796;27;45541;-75
2023/02/22 08:28:50;;;;;;;;;60.50;47.00;;;;;11.72;64.93;100560.44;5095499;27;47301;-75
2023/02/22 08:31:16;;;;;;;;;58.75;46.50;;;;;11.68;65.25;100566.88;5097566;27;45764;-74
2023/02/22 08:33:41;;;;;;;;;67.75;52.00;;;;;11.66;65.67;100571.41;5095451;27;45712;-73
2023/02/22 08:36:07;;;;;;;;;58.50;48.00;;;;;11.48;65.64;100549.19;5097048;27;45696;-75
2023/02/22 08:38:32;;;;;;;;;63.00;48.50;;;;;11.58;65.71;100572.00;5096798;27;46321;-75
2023/02/22 08:44:19;;;;;;;;;60.25;49.25;;;;;11.53;65.88;100578.53;5096884;27;45644;-75
2023/02/22 08:46:45;;;;;;;;;64.50;51.00;;;;;11.45;65.97;100586.97;5096839;27;45753;-74
2023/02/22 08:49:10;;;;;;;;;65.75;49.75;;;;;11.49;66.08;100595.47;5096207;27;46995;-75
2023/02/22 08:51:36;;;;;;;;;59.25;47.00;;;;;11.47;66.14;100586.88;5096589;27;46130;-75
2023/02/22 08:54:02;;;;;;;;;59.75;47.75;;;;;11.53;65.96;100594.28;5096652;27;45755;-75
2023/02/22 09:00:04;;;;;;;;;57.75;46.50;;;;;11.63;66.11;100585.59;5087784;27;46119;-76
2023/02/22 09:02:29;;;;;;;;;64.25;48.50;;;;;11.62;65.93;100583.91;5097349;27;46355;-74
2023/02/22 09:04:55;;;;;;;;;67.00;52.50;;;;;11.65;66.26;100583.72;5096736;27;45684;-75
2023/02/22 09:07:20;;;;;;;;;60.50;49.00;;;;;11.59;65.81;100570.22;5096687;27;45722;-75
2023/02/22 09:09:45;;;;;;;;;62.50;49.00;;;;;11.68;66.18;100586.09;5095911;27;45816;-75
2023/02/22 09:12:11;;;;;;;;;63.25;49.00;;;;;11.70;66.16;100589.44;5094533;27;45890;-75
2023/02/22 09:14:37;;;;;;;;;63.00;50.50;;;;;11.70;66.12;100586.81;5096099;27;45695;-75
2023/02/22 09:17:02;;;;;;;;;60.00;48.00;;;;;11.70;66.08;100592.06;5096861;27;45635;-76
2023/02/22 09:19:28;;;;;;;;;61.00;47.25;;;;;11.69;66.05;100594.78;5096036;27;45727;-75
2023/02/22 09:21:58;;;;;;;;;60.00;48.25;;;;;11.62;66.19;100593.56;5096072;27;46263;-75
2023/02/22 09:24:25;;;;;;;;;62.75;49.00;;;;;11.44;66.57;100587.94;5096180;27;45779;-75
2023/02/22 09:26:53;;;;;;;;;62.75;47.00;;;;;11.47;66.65;100602.59;5093520;27;45541;-75
2023/02/22 09:29:21;;;;;;;;;59.50;43.00;;;;;11.44;66.66;100595.81;5096128;27;45614;-74
2023/02/22 09:31:48;;;;;;;;;63.75;49.00;;;;;11.39;66.87;100591.88;5095982;27;46146;-75
2023/02/22 09:34:15;;;;;;;;;67.25;51.00;;;;;11.32;66.93;100581.81;5095916;27;45934;-75
2023/02/22 09:36:45;;;;;;;;;59.25;48.00;;;;;11.27;67.16;100586.59;5095656;27;45721;-76
2023/02/22 09:39:12;;;;;;;;;61.50;47.00;;;;;11.22;67.26;100587.88;5095466;27;46541;-76
2023/02/22 09:45:11;;;;;;;;;63.75;50.50;;;;;11.11;67.92;100583.41;5095728;27;46045;-75
2023/02/22 09:47:57;;;;;;;;;64.25;49.25;;;;;11.10;67.73;100573.88;5095668;27;45767;-75
2023/02/22 09:50:34;;;;;;;;;65.75;51.50;;;;;11.19;67.79;100581.06;5095889;27;45627;-74
2023/02/22 09:53:04;;;;;;;;;61.00;48.75;;;;;11.21;67.65;100581.78;5095585;27;47291;-76
2023/02/22 09:55:38;;;;;;;;;69.25;52.00;;;;;11.25;67.95;100590.25;5095706;27;45587;-75
2023/02/22 09:58:21;;;;;;;;;56.75;46.00;;;;;11.28;67.71;100592.66;5111235;27;45714;-73
2023/02/22 10:00:52;;;;;;;;;69.25;49.00;;;;;11.35;67.70;100584.22;5095020;27;46433;-75
2023/02/22 10:03:46;;;;;;;;;60.25;47.75;;;;;11.36;67.59;100583.25;5095392;27;47193;-75
2023/02/22 10:06:15;;;;;;;;;60.50;48.75;;;;;11.44;67.39;100585.31;5097057;27;45935;-75
2023/02/22 10:08:43;;;;;;;;;63.25;47.50;;;;;11.45;67.55;100584.34;5096367;27;46176;-75
2023/02/22 10:11:34;;;;;;;;;57.50;47.25;;;;;11.51;67.72;100583.06;5095572;27;46376;-76
2023/02/22 10:14:21;;;;;;;;;62.50;48.00;;;;;11.53;67.64;100583.78;5095273;27;46425;-75
2023/02/22 10:17:09;;;;;;;;;57.00;46.75;;;;;11.51;67.54;100568.16;5093302;27;45965;-75
2023/02/22 10:19:53;;;;;;;;;63.50;49.75;;;;;11.59;67.42;100583.31;5095241;27;45759;-75
2023/02/22 10:22:50;;;;;;;;;60.00;48.75;;;;;11.65;67.62;100593.38;5094937;27;46248;-75
2023/02/22 10:28:49;;;;;;;;;64.50;49.25;;;;;11.73;67.05;100585.75;5094650;27;45635;-75
2023/02/22 10:31:42;;;;;;;;;55.75;47.00;;;;;11.80;67.31;100586.13;5095182;27;45871;-75
2023/02/22 10:34:14;;;;;;;;;60.00;48.00;;;;;11.85;66.93;100584.00;5094779;27;45724;-74
2023/02/22 10:36:42;;;;;;;;;60.50;47.25;;;;;11.84;66.61;100585.78;5094219;27;46316;-74
2023/02/22 10:39:10;;;;;;;;;55.75;45.75;;;;;11.95;66.79;100587.56;5110816;27;45521;-75
2023/02/22 10:44:57;;;;;;;;;53.25;44.00;;;;;12.01;66.60;100587.09;5094570;27;45975;-76
2023/02/22 10:47:23;;;;;;;;;60.00;47.50;;;;;12.02;66.76;100583.53;5094627;27;45579;-74
2023/02/22 10:49:54;;;;;;;;;62.25;49.00;;;;;11.99;66.59;100596.88;5094288;27;45738;-74
2023/02/22 10:52:28;;;;;;;;;66.25;48.75;;;;;11.97;66.73;100601.44;5094919;27;45607;-74
2023/02/22 10:54:56;;;;;;;;;58.25;48.25;;;;;11.95;66.76;100598.91;5094272;27;46764;-74
2023/02/22 11:00:43;;;;;;;;;67.25;50.75;;;;;11.97;67.03;100604.91;5085328;27;45738;-74
2023/02/22 11:03:20;;;;;;;;;61.50;47.25;;;;;11.97;66.88;100609.31;5092847;27;45628;-75
2023/02/22 11:05:47;;;;;;;;;66.00;50.75;;;;;11.98;66.77;100598.69;5093959;27;47405;-75
2023/02/22 11:08:15;;;;;;;;;65.75;49.50;;;;;12.02;66.64;100599.28;5094189;27;46081;-75
2023/02/22 11:10:42;;;;;;;;;65.00;50.50;;;;;12.06;66.65;100601.56;5094057;27;45622;-76
2023/02/22 11:13:30;;;;;;;;;56.50;45.75;;;;;12.09;66.50;100593.41;5094991;27;45609;-75
2023/02/22 11:16:16;;;;;;;;;55.75;44.75;;;;;12.11;66.35;100588.91;5110677;27;46479;-74
2023/02/22 11:18:42;;;;;;;;;64.75;49.00;;;;;12.17;66.56;100595.47;5093946;27;46355;-74
2023/02/22 11:21:11;;;;;;;;;63.00;48.75;;;;;12.17;66.40;100600.72;5094327;27;45754;-75
2023/02/22 11:23:39;;;;;;;;;63.50;49.50;;;;;12.05;66.28;100572.78;5093869;27;45652;-75
2023/02/22 11:26:16;;;;;;;;;61.25;48.00;;;;;12.18;66.43;100586.63;5093724;27;47468;-75
2023/02/22 11:28:48;;;;;;;;;59.00;46.25;;;;;12.13;66.44;100578.28;5093935;27;45994;-77
2023/02/22 11:31:19;;;;;;;;;60.00;48.00;;;;;12.28;66.21;100589.38;5093812;27;45695;-76
2023/02/22 11:33:56;;;;;;;;;58.50;45.50;;;;;12.23;66.10;100588.91;5094046;27;45678;-75
2023/02/22 11:36:39;;;;;;;;;59.50;45.75;;;;;12.28;65.93;100592.00;5093679;27;46398;-75
2023/02/22 11:39:24;;;;;;;;;58.25;44.75;;;;;12.23;66.29;100589.75;5093452;27;46568;-75
2023/02/22 11:41:50;;;;;;;;;66.25;49.75;;;;;12.17;66.35;100580.53;5093545;27;45923;-75
2023/02/22 11:44:26;;;;;;;;;64.00;49.75;;;;;12.13;66.04;100580.91;5093883;27;45938;-75
2023/02/22 11:47:00;;;;;;;;;64.00;47.25;;;;;12.13;66.52;100584.38;5093381;27;47625;-75
2023/02/22 11:49:34;;;;;;;;;60.00;45.00;;;;;12.13;66.42;100583.53;5092453;27;46206;-74
2023/02/22 11:52:11;;;;;;;;;65.25;50.75;;;;;12.10;66.44;100579.34;5093506;27;45872;-74
2023/02/22 11:55:01;;;;;;;;;58.25;44.00;;;;;12.11;66.56;100574.94;5094089;27;45759;-75
2023/02/22 11:57:45;;;;;;;;;58.50;48.75;;;;;12.07;66.46;100576.97;5093099;27;46512;-75
2023/02/22 12:00:56;;;;;;;;;66.00;49.75;;;;;12.07;66.64;100578.75;5093179;27;45581;-75
2023/02/22 12:03:46;;;;;;;;;59.25;46.00;;;;;12.06;66.49;100574.44;5092265;27;45709;-77
2023/02/22 12:06:30;;;;;;;;;58.25;43.75;;;;;12.01;66.50;100558.22;5093730;27;45685;-74
2023/02/22 12:09:25;;;;;;;;;48.00;41.50;;;;;11.98;66.33;100569.81;5093494;27;45622;-75
2023/02/22 12:15:30;;;;;;;;;53.00;40.75;;;;;11.87;66.70;100569.81;5093176;27;45652;-75
2023/02/22 12:18:40;;;;;;;;;52.75;42.75;;;;;11.85;66.83;100565.63;5093176;27;45492;-73
2023/02/22 12:21:17;;;;;;;;;54.25;45.00;;;;;11.84;66.83;100556.91;5087241;27;47504;-73
2023/02/22 12:23:43;;;;;;;;;59.25;46.00;;;;;11.83;66.69;100552.59;5091494;27;47108;-74
2023/02/22 12:26:36;;;;;;;;;58.25;47.75;;;;;11.81;66.64;100551.91;5093094;27;45562;-74
2023/02/22 12:29:16;;;;;;;;;57.25;44.50;;;;;11.89;66.84;100556.53;5093476;27;45798;-75
2023/02/22 12:31:48;;;;;;;;;62.25;48.75;;;;;11.91;66.64;100552.84;5093316;27;45697;-74
2023/02/22 12:34:40;;;;;;;;;55.00;45.75;;;;;11.92;66.54;100551.91;5109268;27;47872;-75
2023/02/22 12:37:29;;;;;;;;;54.25;44.00;;;;;11.92;66.76;100548.44;5092996;27;46086;-74
2023/02/22 12:39:58;;;;;;;;;56.75;44.50;;;;;11.90;66.47;100559.06;5094123;27;45566;-76
2023/02/22 12:42:42;;;;;;;;;54.75;45.25;;;;;11.90;66.68;100545.94;5094780;27;45658;-75
2023/02/22 12:45:19;;;;;;;;;55.00;43.50;;;;;11.84;66.63;100549.03;5094615;27;46213;-74
2023/02/22 12:47:57;;;;;;;;;56.25;44.25;;;;;11.81;66.78;100546.66;5094389;27;45690;-74
2023/02/22 12:50:28;;;;;;;;;59.50;47.75;;;;;11.77;66.84;100547.81;5093373;27;45710;-76